createdAt,value
2023-05-22T00:00:57.794Z,20.31
2023-05-22T00:01:57.803Z,20.35
2023-05-22T00:02:58.018Z,20.34
2023-05-22T00:03:57.761Z,20.47
2023-05-22T00:04:57.761Z,20.30
2023-05-22T00:05:57.755Z,20.41
2023-05-22T00:06:57.765Z,20.35
2023-05-22T00:07:57.909Z,20.30
2023-05-22T00:08:57.719Z,20.27
2023-05-22T00:09:57.722Z,20.24
2023-05-22T00:10:57.685Z,20.33
2023-05-22T00:11:57.722Z,20.30
2023-05-22T00:12:57.678Z,20.28
2023-05-22T00:13:57.655Z,20.24
2023-05-22T00:14:57.652Z,20.23
2023-05-22T00:15:57.633Z,20.20
2023-05-22T00:16:57.679Z,20.20
2023-05-22T00:17:57.669Z,20.23
2023-05-22T00:18:57.766Z,20.24
2023-05-22T00:19:57.616Z,20.16
2023-05-22T00:20:57.603Z,20.20
2023-05-22T00:21:57.597Z,20.13
2023-05-22T00:22:57.558Z,20.16
2023-05-22T00:23:57.550Z,20.15
2023-05-22T00:24:57.537Z,20.13
2023-05-22T00:25:57.631Z,20.15
2023-05-22T00:26:57.534Z,20.13
2023-05-22T00:27:57.499Z,20.08
2023-05-22T00:28:57.494Z,20.12
2023-05-22T00:29:57.482Z,20.12
2023-05-22T00:30:57.490Z,20.09
2023-05-22T00:31:57.477Z,20.13
2023-05-22T00:32:57.499Z,20.08
2023-05-22T00:33:57.497Z,20.06
2023-05-22T00:34:57.467Z,20.15
2023-05-22T00:35:57.438Z,20.12
2023-05-22T00:36:57.405Z,20.10
2023-05-22T00:37:57.403Z,20.08
2023-05-22T00:38:57.389Z,19.97
2023-05-22T00:39:57.406Z,20.03
2023-05-22T00:40:57.372Z,19.95
2023-05-22T00:41:57.379Z,19.98
2023-05-22T00:42:57.347Z,19.97
2023-05-22T00:43:57.340Z,20.00
2023-05-22T00:44:57.338Z,19.94
2023-05-22T00:45:57.364Z,19.97
2023-05-22T00:46:57.376Z,20.02
2023-05-22T00:47:57.331Z,20.02
2023-05-22T00:48:57.289Z,19.98
2023-05-22T00:49:57.304Z,19.95
2023-05-22T00:50:57.266Z,19.91
2023-05-22T00:51:57.245Z,19.90
2023-05-22T00:52:57.253Z,19.91
2023-05-22T00:53:57.241Z,19.94
2023-05-22T00:54:57.229Z,19.79
2023-05-22T00:55:57.206Z,19.80
2023-05-22T00:56:57.198Z,19.87
2023-05-22T00:57:57.204Z,19.83
2023-05-22T00:58:57.182Z,19.88
2023-05-22T00:59:57.161Z,19.83
2023-05-22T01:00:57.166Z,19.84
2023-05-22T01:01:57.229Z,19.79
2023-05-22T01:02:57.252Z,19.87
2023-05-22T01:03:57.317Z,19.73
2023-05-22T01:04:57.106Z,19.87
2023-05-22T01:05:57.098Z,19.76
2023-05-22T01:06:57.087Z,19.72
2023-05-22T01:07:57.118Z,19.72
2023-05-22T01:08:57.062Z,19.68
2023-05-22T01:09:57.053Z,19.66
2023-05-22T01:10:57.060Z,19.70
2023-05-22T01:11:57.039Z,19.73
2023-05-22T01:12:57.032Z,19.66
2023-05-22T01:13:57.131Z,19.72
2023-05-22T01:14:57.000Z,19.55
2023-05-22T01:15:57.005Z,19.55
2023-05-22T01:16:56.986Z,19.57
2023-05-22T01:17:57.013Z,19.53
2023-05-22T01:18:57.013Z,19.65
2023-05-22T01:19:56.955Z,19.61
2023-05-22T01:20:56.936Z,19.60
2023-05-22T01:21:56.944Z,19.58
2023-05-22T01:22:56.924Z,19.53
2023-05-22T01:23:56.905Z,19.47
2023-05-22T01:24:56.891Z,19.47
2023-05-22T01:25:56.879Z,19.51
2023-05-22T01:26:56.880Z,19.42
2023-05-22T01:27:56.854Z,19.46
2023-05-22T01:28:56.850Z,19.40
2023-05-22T01:29:56.933Z,19.42
2023-05-22T01:30:56.825Z,19.40
2023-05-22T01:31:56.830Z,19.40
2023-05-22T01:32:56.928Z,19.39
2023-05-22T01:33:56.958Z,19.29
2023-05-22T01:34:56.798Z,19.32
2023-05-22T01:35:56.798Z,19.29
2023-05-22T01:36:56.778Z,19.29
2023-05-22T01:37:56.748Z,19.29
2023-05-22T01:38:56.763Z,19.28
2023-05-22T01:39:56.725Z,19.23
2023-05-22T01:40:56.727Z,19.23
2023-05-22T01:41:56.708Z,19.23
2023-05-22T01:42:56.698Z,19.20
2023-05-22T01:43:56.698Z,19.10
2023-05-22T01:44:56.671Z,19.11
2023-05-22T01:45:56.787Z,19.13
2023-05-22T01:46:56.665Z,19.14
2023-05-22T01:47:56.672Z,19.05
2023-05-22T01:48:56.647Z,18.97
2023-05-22T01:49:56.647Z,18.94
2023-05-22T01:50:56.626Z,18.97
2023-05-22T01:51:56.598Z,19.02
2023-05-22T01:52:56.587Z,18.95
2023-05-22T01:53:56.578Z,18.92
2023-05-22T01:54:56.585Z,18.94
2023-05-22T01:55:56.554Z,18.95
2023-05-22T01:56:56.549Z,19.01
2023-05-22T01:57:56.530Z,18.92
2023-05-22T01:58:56.544Z,18.92
2023-05-22T01:59:56.520Z,18.90
2023-05-22T02:00:56.543Z,18.98
2023-05-22T02:01:56.616Z,18.94
2023-05-22T02:02:56.530Z,18.90
2023-05-22T02:03:56.498Z,18.86
2023-05-22T02:04:56.501Z,18.92
2023-05-22T02:05:56.469Z,18.86
2023-05-22T02:06:56.469Z,18.80
2023-05-22T02:07:56.427Z,18.84
2023-05-22T02:08:56.426Z,18.83
2023-05-22T02:09:56.430Z,18.83
2023-05-22T02:10:56.391Z,18.87
2023-05-22T02:11:56.396Z,18.86
2023-05-22T02:12:56.372Z,18.84
2023-05-22T02:13:56.383Z,18.87
2023-05-22T02:14:56.365Z,18.84
2023-05-22T02:15:56.379Z,18.86
2023-05-22T02:16:56.328Z,18.84
2023-05-22T02:17:56.371Z,18.82
2023-05-22T02:18:56.395Z,18.87
2023-05-22T02:19:56.299Z,18.76
2023-05-22T02:20:56.285Z,18.74
2023-05-22T02:21:56.322Z,18.73
2023-05-22T02:22:56.287Z,18.73
2023-05-22T02:23:56.257Z,18.76
2023-05-22T02:24:56.257Z,18.67
2023-05-22T02:25:56.256Z,18.61
2023-05-22T02:26:56.243Z,18.68
2023-05-22T02:27:56.240Z,18.61
2023-05-22T02:28:56.198Z,18.72
2023-05-22T02:29:56.188Z,18.72
2023-05-22T02:30:56.215Z,18.62
2023-05-22T02:31:56.165Z,18.61
2023-05-22T02:32:56.184Z,18.65
2023-05-22T02:33:56.164Z,18.58
2023-05-22T02:34:56.134Z,18.61
2023-05-22T02:35:56.122Z,18.59
2023-05-22T02:36:56.111Z,18.57
2023-05-22T02:37:56.112Z,18.55
2023-05-22T02:38:56.090Z,18.57
2023-05-22T02:39:56.089Z,18.61
2023-05-22T02:40:56.070Z,18.54
2023-05-22T02:41:56.080Z,18.64
2023-05-22T02:42:56.059Z,18.59
2023-05-22T02:43:56.043Z,18.55
2023-05-22T02:44:56.026Z,18.57
2023-05-22T02:45:56.020Z,18.55
2023-05-22T02:46:56.186Z,18.52
2023-05-22T02:47:56.035Z,18.55
2023-05-22T02:48:55.984Z,18.49
2023-05-22T02:49:55.998Z,18.54
2023-05-22T02:50:55.963Z,18.55
2023-05-22T02:51:56.171Z,18.57
2023-05-22T02:52:55.938Z,18.55
2023-05-22T02:53:55.948Z,18.49
2023-05-22T02:54:55.932Z,18.54
2023-05-22T02:55:55.921Z,18.50
2023-05-22T02:56:55.912Z,18.47
2023-05-22T02:57:55.881Z,18.52
2023-05-22T02:58:55.886Z,18.52
2023-05-22T02:59:55.864Z,18.52
2023-05-22T03:00:55.864Z,18.47
2023-05-22T03:01:55.865Z,18.47
2023-05-22T03:02:55.919Z,18.43
2023-05-22T03:03:56.023Z,18.40
2023-05-22T03:04:55.810Z,18.44
2023-05-22T03:05:55.936Z,18.34
2023-05-22T03:06:55.785Z,18.31
2023-05-22T03:07:55.772Z,18.33
2023-05-22T03:08:55.767Z,18.43
2023-05-22T03:09:55.750Z,18.29
2023-05-22T03:10:55.759Z,18.37
2023-05-22T03:11:55.736Z,18.27
2023-05-22T03:12:55.716Z,18.28
2023-05-22T03:13:55.713Z,18.33
2023-05-22T03:14:55.716Z,18.33
2023-05-22T03:15:55.791Z,18.28
2023-05-22T03:16:55.674Z,18.27
2023-05-22T03:17:55.693Z,18.19
2023-05-22T03:18:55.667Z,18.18
2023-05-22T03:19:55.655Z,18.27
2023-05-22T03:20:55.629Z,18.21
2023-05-22T03:21:55.954Z,18.27
2023-05-22T03:22:55.607Z,18.18
2023-05-22T03:23:55.602Z,18.17
2023-05-22T03:24:55.600Z,18.21
2023-05-22T03:25:55.593Z,18.22
2023-05-22T03:26:55.565Z,18.09
2023-05-22T03:27:55.556Z,18.15
2023-05-22T03:28:55.626Z,18.13
2023-05-22T03:29:55.565Z,18.15
2023-05-22T03:30:55.526Z,18.10
2023-05-22T03:31:55.513Z,18.15
2023-05-22T03:32:55.539Z,18.03
2023-05-22T03:33:55.557Z,18.12
2023-05-22T03:34:55.501Z,18.07
2023-05-22T03:35:55.470Z,18.15
2023-05-22T03:36:55.467Z,18.17
2023-05-22T03:37:55.467Z,18.15
2023-05-22T03:38:55.451Z,18.09
2023-05-22T03:39:55.430Z,18.17
2023-05-22T03:40:55.413Z,18.17
2023-05-22T03:41:55.404Z,18.10
2023-05-22T03:42:55.403Z,18.06
2023-05-22T03:43:55.400Z,18.07
2023-05-22T03:44:55.384Z,18.21
2023-05-22T03:45:55.386Z,18.18
2023-05-22T03:46:55.349Z,18.22
2023-05-22T03:47:55.370Z,18.09
2023-05-22T03:48:55.346Z,18.12
2023-05-22T03:49:55.334Z,18.10
2023-05-22T03:50:55.307Z,18.13
2023-05-22T03:51:55.298Z,18.17
2023-05-22T03:52:55.304Z,18.13
2023-05-22T03:53:55.295Z,18.28
2023-05-22T03:54:55.268Z,18.25
2023-05-22T03:55:55.256Z,18.21
2023-05-22T03:56:55.266Z,18.22
2023-05-22T03:57:55.252Z,18.28
2023-05-22T03:58:55.233Z,18.34
2023-05-22T03:59:55.208Z,18.43
2023-05-22T04:00:55.198Z,18.39
2023-05-22T04:01:55.202Z,18.42
2023-05-22T04:02:55.199Z,18.39
2023-05-22T04:03:55.172Z,18.47
2023-05-22T04:04:55.203Z,18.37
2023-05-22T04:05:55.142Z,18.47
2023-05-22T04:06:55.159Z,18.52
2023-05-22T04:07:55.128Z,18.49
2023-05-22T04:08:55.107Z,18.55
2023-05-22T04:09:55.119Z,18.58
2023-05-22T04:10:55.103Z,18.67
2023-05-22T04:11:55.090Z,18.64
2023-05-22T04:12:55.074Z,18.73
2023-05-22T04:13:55.057Z,18.74
2023-05-22T04:14:55.042Z,18.77
2023-05-22T04:15:55.096Z,18.82
2023-05-22T04:16:55.020Z,18.80
2023-05-22T04:17:55.106Z,18.94
2023-05-22T04:18:55.014Z,18.98
2023-05-22T04:19:54.990Z,18.97
2023-05-22T04:20:55.001Z,18.98
2023-05-22T04:21:54.987Z,19.06
2023-05-22T04:22:54.963Z,19.01
2023-05-22T04:23:54.946Z,19.08
2023-05-22T04:24:54.950Z,19.21
2023-05-22T04:25:54.966Z,19.24
2023-05-22T04:26:54.940Z,19.24
2023-05-22T04:27:54.907Z,19.32
2023-05-22T04:28:54.888Z,19.43
2023-05-22T04:29:54.898Z,19.53
2023-05-22T04:30:54.912Z,19.46
2023-05-22T04:31:54.858Z,19.57
2023-05-22T04:32:54.894Z,19.43
2023-05-22T04:33:54.841Z,19.31
2023-05-22T04:34:54.843Z,19.28
2023-05-22T04:35:54.816Z,19.13
2023-05-22T04:36:54.801Z,18.94
2023-05-22T04:37:54.796Z,18.83
2023-05-22T04:38:54.793Z,18.91
2023-05-22T04:39:54.787Z,18.97
2023-05-22T04:40:54.761Z,18.97
2023-05-22T04:41:54.781Z,19.05
2023-05-22T04:42:54.746Z,19.20
2023-05-22T04:43:54.750Z,19.32
2023-05-22T04:44:54.740Z,19.38
2023-05-22T04:45:54.738Z,19.50
2023-05-22T04:46:54.743Z,19.58
2023-05-22T04:47:54.730Z,19.72
2023-05-22T04:48:54.699Z,19.75
2023-05-22T04:49:54.669Z,19.68
2023-05-22T04:50:54.653Z,19.75
2023-05-22T04:51:54.646Z,19.73
2023-05-22T04:52:54.628Z,19.68
2023-05-22T04:53:54.638Z,19.72
2023-05-22T04:54:54.616Z,19.65
2023-05-22T04:55:54.616Z,19.73
2023-05-22T04:56:54.588Z,19.69
2023-05-22T04:57:54.657Z,19.75
2023-05-22T04:58:54.586Z,19.76
2023-05-22T04:59:54.566Z,19.84
2023-05-22T05:00:54.575Z,19.78
2023-05-22T05:01:54.539Z,19.78
2023-05-22T05:02:54.578Z,19.69
2023-05-22T05:03:54.552Z,19.57
2023-05-22T05:04:54.509Z,19.43
2023-05-22T05:05:54.493Z,19.57
2023-05-22T05:06:54.486Z,19.51
2023-05-22T05:07:54.483Z,19.50
2023-05-22T05:08:54.458Z,19.60
2023-05-22T05:09:54.449Z,19.61
2023-05-22T05:10:54.442Z,19.72
2023-05-22T05:11:54.427Z,19.75
2023-05-22T05:12:54.429Z,19.76
2023-05-22T05:13:54.548Z,19.84
2023-05-22T05:14:54.393Z,19.83
2023-05-22T05:15:54.388Z,19.76
2023-05-22T05:16:54.461Z,19.78
2023-05-22T05:17:54.403Z,19.72
2023-05-22T05:18:54.380Z,19.70
2023-05-22T05:19:54.359Z,19.73
2023-05-22T05:20:54.333Z,19.78
2023-05-22T05:21:54.349Z,19.83
2023-05-22T05:22:54.311Z,19.76
2023-05-22T05:23:54.300Z,19.75
2023-05-22T05:24:54.287Z,19.65
2023-05-22T05:25:54.313Z,19.73
2023-05-22T05:26:54.286Z,19.66
2023-05-22T05:27:54.258Z,19.68
2023-05-22T05:28:54.264Z,19.68
2023-05-22T05:29:54.249Z,19.79
2023-05-22T05:30:54.238Z,19.72
2023-05-22T05:31:54.253Z,19.63
2023-05-22T05:32:54.230Z,19.75
2023-05-22T05:33:54.195Z,19.72
2023-05-22T05:34:54.181Z,19.76
2023-05-22T05:35:54.188Z,19.78
2023-05-22T05:36:54.158Z,19.72
2023-05-22T05:37:54.172Z,19.72
2023-05-22T05:38:54.149Z,19.75
2023-05-22T05:39:54.160Z,19.75
2023-05-22T05:40:54.126Z,19.80
2023-05-22T05:41:54.119Z,19.80
2023-05-22T05:42:54.097Z,19.80
2023-05-22T05:43:54.087Z,19.69
2023-05-22T05:44:54.105Z,19.69
2023-05-22T05:45:54.102Z,19.75
2023-05-22T05:46:54.076Z,19.68
2023-05-22T05:47:54.102Z,19.78
2023-05-22T05:48:54.031Z,19.79
2023-05-22T05:49:54.055Z,19.75
2023-05-22T05:50:54.017Z,19.76
2023-05-22T05:51:54.007Z,19.76
2023-05-22T05:52:54.004Z,19.83
2023-05-22T05:53:53.982Z,19.91
2023-05-22T05:54:53.996Z,19.91
2023-05-22T05:55:53.958Z,19.97
2023-05-22T05:56:53.950Z,19.94
2023-05-22T05:57:53.951Z,19.94
2023-05-22T05:58:53.958Z,19.93
2023-05-22T05:59:53.936Z,20.08
2023-05-22T06:00:53.907Z,20.10
2023-05-22T06:01:53.911Z,20.21
2023-05-22T06:02:53.960Z,20.15
2023-05-22T06:03:54.185Z,20.15
2023-05-22T06:04:53.880Z,20.21
2023-05-22T06:05:53.955Z,20.28
2023-05-22T06:06:53.850Z,20.27
2023-05-22T06:07:53.832Z,20.27
2023-05-22T06:08:53.839Z,20.33
2023-05-22T06:09:53.811Z,20.34
2023-05-22T06:10:53.807Z,20.38
2023-05-22T06:11:53.794Z,20.49
2023-05-22T06:12:53.804Z,20.59
2023-05-22T06:13:53.791Z,20.59
2023-05-22T06:14:53.761Z,20.61
2023-05-22T06:15:53.788Z,20.61
2023-05-22T06:16:53.780Z,20.69
2023-05-22T06:17:53.806Z,20.68
2023-05-22T06:18:53.745Z,20.69
2023-05-22T06:19:53.701Z,20.69
2023-05-22T06:20:53.715Z,20.69
2023-05-22T06:21:53.683Z,20.66
2023-05-22T06:22:53.690Z,20.64
2023-05-22T06:23:53.709Z,20.72
2023-05-22T06:24:53.665Z,20.66
2023-05-22T06:25:53.643Z,20.76
2023-05-22T06:26:53.660Z,20.81
2023-05-22T06:27:53.692Z,20.76
2023-05-22T06:28:53.608Z,20.79
2023-05-22T06:29:53.601Z,20.84
2023-05-22T06:30:53.587Z,20.81
2023-05-22T06:31:53.597Z,20.91
2023-05-22T06:32:53.641Z,21.06
2023-05-22T06:33:53.662Z,21.20
2023-05-22T06:34:53.580Z,21.26
2023-05-22T06:35:53.546Z,21.19
2023-05-22T06:36:53.542Z,21.20
2023-05-22T06:37:53.520Z,21.17
2023-05-22T06:38:53.556Z,21.13
2023-05-22T06:39:53.504Z,20.93
2023-05-22T06:40:53.494Z,20.96
2023-05-22T06:41:53.496Z,21.20
2023-05-22T06:42:53.464Z,21.27
2023-05-22T06:43:53.457Z,21.42
2023-05-22T06:44:53.441Z,21.44
2023-05-22T06:45:53.471Z,21.53
2023-05-22T06:46:53.430Z,21.56
2023-05-22T06:47:53.448Z,21.59
2023-05-22T06:48:53.398Z,21.63
2023-05-22T06:49:53.412Z,21.44
2023-05-22T06:50:53.400Z,21.42
2023-05-22T06:51:53.368Z,21.56
2023-05-22T06:52:53.355Z,21.56
2023-05-22T06:53:53.351Z,21.78
2023-05-22T06:54:53.349Z,21.85
2023-05-22T06:55:53.339Z,22.10
2023-05-22T06:56:53.319Z,22.34
2023-05-22T06:57:53.300Z,22.34
2023-05-22T06:58:53.301Z,22.43
2023-05-22T06:59:53.314Z,22.54
2023-05-22T07:00:53.291Z,22.67
2023-05-22T07:01:53.257Z,22.67
2023-05-22T07:02:53.338Z,22.78
2023-05-22T07:03:53.230Z,22.77
2023-05-22T07:04:53.260Z,22.71
2023-05-22T07:05:53.286Z,22.84
2023-05-22T07:06:53.209Z,22.92
2023-05-22T07:07:53.194Z,23.05
2023-05-22T07:08:53.184Z,22.97
2023-05-22T07:09:53.236Z,22.99
2023-05-22T07:10:53.157Z,22.97
2023-05-22T07:11:53.149Z,23.17
2023-05-22T07:12:53.136Z,23.24
2023-05-22T07:13:53.132Z,23.50
2023-05-22T07:14:53.143Z,23.53
2023-05-22T07:15:53.106Z,23.75
2023-05-22T07:16:53.164Z,23.85
2023-05-22T07:17:53.149Z,24.04
2023-05-22T07:18:53.208Z,24.22
2023-05-22T07:19:53.064Z,24.35
2023-05-22T07:20:53.053Z,24.31
2023-05-22T07:21:53.059Z,24.19
2023-05-22T07:22:53.041Z,24.14
2023-05-22T07:23:53.061Z,24.14
2023-05-22T07:24:53.011Z,24.32
2023-05-22T07:25:52.997Z,24.17
2023-05-22T07:26:52.983Z,24.35
2023-05-22T07:27:53.003Z,24.37
2023-05-22T07:28:52.980Z,24.50
2023-05-22T07:29:52.950Z,24.32
2023-05-22T07:30:52.948Z,24.41
2023-05-22T07:31:53.008Z,24.37
2023-05-22T07:32:53.014Z,24.20
2023-05-22T07:33:52.911Z,24.26
2023-05-22T07:34:52.916Z,24.19
2023-05-22T07:35:52.900Z,24.24
2023-05-22T07:36:52.878Z,24.19
2023-05-22T07:37:52.982Z,24.32
2023-05-22T07:38:52.856Z,24.45
2023-05-22T07:39:52.860Z,24.54
2023-05-22T07:40:52.833Z,24.68
2023-05-22T07:41:54.461Z,24.75
2023-05-22T07:42:52.855Z,24.56
2023-05-22T07:43:52.804Z,24.68
2023-05-22T07:44:52.809Z,24.92
2023-05-22T07:45:52.825Z,25.09
2023-05-22T07:46:52.803Z,25.34
2023-05-22T07:47:54.180Z,25.49
2023-05-22T07:48:52.750Z,25.64
2023-05-22T07:49:52.789Z,25.68
2023-05-22T07:50:52.728Z,25.80
2023-05-22T07:51:52.730Z,25.99
2023-05-22T07:52:52.708Z,26.06
2023-05-22T07:53:52.752Z,26.20
2023-05-22T07:54:52.685Z,26.17
2023-05-22T07:55:52.682Z,26.18
2023-05-22T07:56:52.679Z,26.20
2023-05-22T07:57:52.657Z,26.42
2023-05-22T07:58:52.646Z,26.74
2023-05-22T07:59:52.639Z,26.92
2023-05-22T08:00:52.649Z,26.99
2023-05-22T08:01:52.614Z,27.09
2023-05-22T08:02:52.775Z,27.28
2023-05-22T08:03:52.962Z,27.14
2023-05-22T08:04:52.709Z,27.06
2023-05-22T08:05:52.584Z,27.05
2023-05-22T08:06:52.559Z,27.10
2023-05-22T08:07:52.554Z,27.17
2023-05-22T08:08:52.542Z,27.20
2023-05-22T08:09:52.594Z,27.16
2023-05-22T08:11:53.518Z,27.32
2023-05-22T08:12:52.498Z,27.36
2023-05-22T08:13:52.497Z,27.31
2023-05-22T08:14:52.496Z,27.09
2023-05-22T08:16:00.582Z,26.98
2023-05-22T08:16:53.501Z,27.01
2023-05-22T08:17:52.473Z,27.05
2023-05-22T08:18:52.458Z,27.06
2023-05-22T08:19:52.545Z,27.21
2023-05-22T08:20:54.373Z,27.29
2023-05-22T08:21:52.397Z,27.47
2023-05-22T08:22:52.390Z,27.61
2023-05-22T08:23:52.395Z,27.62
2023-05-22T08:24:52.393Z,27.79
2023-05-22T08:25:52.392Z,28.03
2023-05-22T08:26:52.352Z,28.03
2023-05-22T08:27:52.385Z,28.17
2023-05-22T08:28:52.358Z,28.06
2023-05-22T08:29:52.318Z,28.03
2023-05-22T08:30:52.307Z,28.01
2023-05-22T08:31:52.365Z,27.94
2023-05-22T08:32:52.324Z,27.76
2023-05-22T08:33:52.293Z,27.73
2023-05-22T08:34:52.264Z,27.77
2023-05-22T08:35:52.303Z,27.77
2023-05-22T08:36:52.255Z,27.91
2023-05-22T08:37:52.248Z,27.95
2023-05-22T08:38:52.245Z,27.94
2023-05-22T08:39:52.234Z,27.70
2023-05-22T08:40:52.219Z,27.64
2023-05-22T08:41:52.684Z,27.31
2023-05-22T08:42:52.252Z,27.21
2023-05-22T08:43:52.185Z,27.05
2023-05-22T08:44:52.161Z,26.76
2023-05-22T08:45:52.147Z,26.57
2023-05-22T08:46:52.178Z,26.52
2023-05-22T08:47:52.161Z,26.62
2023-05-22T08:48:52.150Z,26.65
2023-05-22T08:49:52.121Z,26.76
2023-05-22T08:50:52.144Z,26.83
2023-05-22T08:51:52.110Z,26.54
2023-05-22T08:52:52.106Z,26.46
2023-05-22T08:53:52.066Z,26.36
2023-05-22T08:54:52.060Z,26.27
2023-05-22T08:55:52.051Z,26.42
2023-05-22T08:56:56.784Z,26.59
2023-05-22T08:57:53.123Z,26.74
2023-05-22T08:58:52.016Z,26.68
2023-05-22T08:59:52.006Z,26.65
2023-05-22T09:00:52.010Z,26.69
2023-05-22T09:01:52.023Z,26.92
2023-05-22T09:02:52.022Z,27.10
2023-05-22T09:03:52.025Z,27.04
2023-05-22T09:04:51.985Z,26.89
2023-05-22T09:05:51.954Z,26.83
2023-05-22T09:06:51.966Z,26.73
2023-05-22T09:07:51.921Z,26.68
2023-05-22T09:08:51.920Z,26.55
2023-05-22T09:09:51.911Z,26.40
2023-05-22T09:10:51.916Z,26.36
2023-05-22T09:11:51.891Z,26.27
2023-05-22T09:12:51.881Z,26.32
2023-05-22T09:13:52.010Z,26.25
2023-05-22T09:14:53.349Z,26.20
2023-05-22T09:15:51.859Z,26.17
2023-05-22T09:16:51.914Z,26.36
2023-05-22T09:17:51.859Z,26.43
2023-05-22T09:18:51.878Z,26.43
2023-05-22T09:19:51.816Z,26.39
2023-05-22T09:20:51.806Z,26.39
2023-05-22T09:21:51.780Z,26.55
2023-05-22T09:22:51.768Z,26.72
2023-05-22T09:23:51.762Z,26.77
2023-05-22T09:24:51.756Z,26.81
2023-05-22T09:25:51.743Z,26.95
2023-05-22T09:26:51.727Z,27.01
2023-05-22T09:27:51.712Z,26.94
2023-05-22T09:28:51.706Z,26.96
2023-05-22T09:29:51.784Z,26.92
2023-05-22T09:30:51.769Z,26.84
2023-05-22T09:31:51.732Z,26.69
2023-05-22T09:32:51.739Z,26.65
2023-05-22T09:33:51.659Z,26.59
2023-05-22T09:34:51.670Z,26.62
2023-05-22T09:35:51.637Z,26.68
2023-05-22T09:36:51.649Z,26.68
2023-05-22T09:37:51.610Z,26.59
2023-05-22T09:38:51.614Z,26.46
2023-05-22T09:39:51.654Z,26.49
2023-05-22T09:40:51.615Z,26.42
2023-05-22T09:41:51.567Z,26.28
2023-05-22T09:42:51.564Z,26.17
2023-05-22T09:43:51.563Z,26.06
2023-05-22T09:44:51.554Z,25.94
2023-05-22T09:45:51.582Z,25.99
2023-05-22T09:46:51.693Z,26.05
2023-05-22T09:47:51.582Z,26.04
2023-05-22T09:48:51.510Z,26.21
2023-05-22T09:49:51.506Z,26.31
2023-05-22T09:50:51.478Z,26.40
2023-05-22T09:51:51.466Z,26.47
2023-05-22T09:52:51.464Z,26.55
2023-05-22T09:53:51.447Z,26.52
2023-05-22T09:54:51.441Z,26.64
2023-05-22T09:55:51.422Z,26.68
2023-05-22T09:56:51.782Z,26.80
2023-05-22T09:57:51.410Z,27.05
2023-05-22T09:58:51.393Z,27.21
2023-05-22T09:59:51.382Z,27.36
2023-05-22T10:00:51.373Z,27.64
2023-05-22T10:01:51.518Z,27.80
2023-05-22T10:02:51.435Z,27.89
2023-05-22T10:03:51.384Z,27.92
2023-05-22T10:04:51.381Z,27.85
2023-05-22T10:05:51.334Z,27.77
2023-05-22T10:06:51.344Z,27.31
2023-05-22T10:07:51.308Z,27.19
2023-05-22T10:08:51.299Z,27.01
2023-05-22T10:09:51.302Z,26.84
2023-05-22T10:10:51.269Z,26.79
2023-05-22T10:11:51.276Z,26.79
2023-05-22T10:12:51.271Z,26.79
2023-05-22T10:13:51.236Z,26.68
2023-05-22T10:14:51.226Z,26.79
2023-05-22T10:15:51.275Z,26.92
2023-05-22T10:16:51.213Z,27.05
2023-05-22T10:17:51.359Z,27.14
2023-05-22T10:18:51.231Z,27.11
2023-05-22T10:19:51.217Z,27.05
2023-05-22T10:20:51.177Z,27.10
2023-05-22T10:21:51.148Z,27.14
2023-05-22T10:22:51.145Z,27.36
2023-05-22T10:23:51.142Z,27.33
2023-05-22T10:24:51.134Z,27.39
2023-05-22T10:25:51.123Z,27.35
2023-05-22T10:26:51.101Z,27.33
2023-05-22T10:27:51.088Z,27.04
2023-05-22T10:28:51.074Z,26.94
2023-05-22T10:29:51.100Z,26.81
2023-05-22T10:30:51.073Z,26.68
2023-05-22T10:31:51.066Z,26.64
2023-05-22T10:32:51.091Z,26.61
2023-05-22T10:33:51.172Z,26.55
2023-05-22T10:34:51.038Z,26.49
2023-05-22T10:35:51.008Z,26.55
2023-05-22T10:36:50.997Z,26.46
2023-05-22T10:37:51.059Z,26.47
2023-05-22T10:38:50.972Z,26.47
2023-05-22T10:39:50.982Z,26.61
2023-05-22T10:40:50.962Z,26.74
2023-05-22T10:41:50.938Z,26.68
2023-05-22T10:42:50.929Z,26.65
2023-05-22T10:43:50.958Z,26.55
2023-05-22T10:44:50.927Z,26.62
2023-05-22T10:45:50.972Z,26.62
2023-05-22T10:46:50.899Z,26.49
2023-05-22T10:47:50.898Z,26.36
2023-05-22T10:48:50.893Z,26.31
2023-05-22T10:49:50.973Z,26.25
2023-05-22T10:50:50.891Z,26.28
2023-05-22T10:51:50.850Z,26.15
2023-05-22T10:52:50.824Z,26.20
2023-05-22T10:53:50.827Z,26.09
2023-05-22T10:54:50.811Z,26.17
2023-05-22T10:55:50.796Z,26.21
2023-05-22T10:56:50.791Z,26.18
2023-05-22T10:57:50.784Z,26.25
2023-05-22T10:58:50.794Z,26.11
2023-05-22T10:59:50.784Z,26.05
2023-05-22T11:00:50.751Z,26.02
2023-05-22T11:01:50.791Z,26.05
2023-05-22T11:02:50.746Z,26.05
2023-05-22T11:03:50.739Z,26.15
2023-05-22T11:04:50.852Z,26.11
2023-05-22T11:05:50.970Z,26.12
2023-05-22T11:06:50.693Z,26.08
2023-05-22T11:07:50.718Z,26.17
2023-05-22T11:08:50.661Z,26.15
2023-05-22T11:09:50.652Z,26.22
2023-05-22T11:10:50.689Z,26.21
2023-05-22T11:11:50.713Z,26.18
2023-05-22T11:12:50.635Z,26.01
2023-05-22T11:13:50.604Z,26.11
2023-05-22T11:14:50.601Z,26.06
2023-05-22T11:15:50.603Z,26.04
2023-05-22T11:16:50.605Z,26.05
2023-05-22T11:17:50.597Z,26.01
2023-05-22T11:18:50.575Z,25.93
2023-05-22T11:19:50.621Z,25.94
2023-05-22T11:20:50.529Z,25.98
2023-05-22T11:21:50.649Z,25.91
2023-05-22T11:22:50.509Z,26.01
2023-05-22T11:23:50.522Z,25.97
2023-05-22T11:24:50.487Z,25.93
2023-05-22T11:25:50.477Z,25.99
2023-05-22T11:26:50.469Z,26.01
2023-05-22T11:27:50.502Z,26.04
2023-05-22T11:28:50.467Z,25.94
2023-05-22T11:29:50.438Z,25.91
2023-05-22T11:30:50.490Z,25.94
2023-05-22T11:31:50.410Z,25.93
2023-05-22T11:32:50.461Z,25.91
2023-05-22T11:33:50.393Z,25.94
2023-05-22T11:34:50.391Z,25.93
2023-05-22T11:35:50.369Z,25.91
2023-05-22T11:36:50.367Z,25.82
2023-05-22T11:37:50.511Z,25.87
2023-05-22T11:38:50.337Z,25.90
2023-05-22T11:39:50.336Z,26.06
2023-05-22T11:40:50.328Z,25.99
2023-05-22T11:41:50.306Z,26.06
2023-05-22T11:42:50.294Z,26.02
2023-05-22T11:43:50.289Z,25.91
2023-05-22T11:44:50.317Z,25.86
2023-05-22T11:45:50.273Z,25.72
2023-05-22T11:46:50.370Z,25.82
2023-05-22T11:47:50.293Z,25.75
2023-05-22T11:48:50.238Z,25.79
2023-05-22T11:49:50.270Z,25.79
2023-05-22T11:50:50.209Z,25.83
2023-05-22T11:51:50.199Z,25.83
2023-05-22T11:52:50.184Z,25.94
2023-05-22T11:53:50.231Z,26.05
2023-05-22T11:54:50.162Z,26.11
2023-05-22T11:55:50.173Z,26.17
2023-05-22T11:56:50.193Z,26.18
2023-05-22T11:57:50.135Z,26.18
2023-05-22T11:58:50.123Z,26.21
2023-05-22T11:59:50.111Z,26.15
2023-05-22T12:00:50.187Z,26.04
2023-05-22T12:01:50.113Z,26.02
2023-05-22T12:02:50.207Z,26.11
2023-05-22T12:03:50.170Z,26.06
2023-05-22T12:04:50.053Z,26.09
2023-05-22T12:05:50.042Z,26.09
2023-05-22T12:06:50.176Z,26.04
2023-05-22T12:07:50.033Z,26.04
2023-05-22T12:08:50.020Z,25.91
2023-05-22T12:09:50.117Z,26.02
2023-05-22T12:10:49.990Z,26.02
2023-05-22T12:11:49.973Z,25.90
2023-05-22T12:12:49.988Z,25.90
2023-05-22T12:13:49.954Z,25.86
2023-05-22T12:14:49.952Z,25.93
2023-05-22T12:15:49.942Z,25.94
2023-05-22T12:16:49.960Z,26.02
2023-05-22T12:17:49.959Z,26.02
2023-05-22T12:18:49.960Z,26.04
2023-05-22T12:19:49.900Z,25.99
2023-05-22T12:20:49.880Z,26.12
2023-05-22T12:21:49.878Z,26.20
2023-05-22T12:22:49.866Z,26.27
2023-05-22T12:23:49.852Z,26.22
2023-05-22T12:24:49.830Z,26.22
2023-05-22T12:25:49.950Z,26.22
2023-05-22T12:26:49.824Z,26.21
2023-05-22T12:27:49.800Z,26.18
2023-05-22T12:28:49.790Z,26.20
2023-05-22T12:29:49.783Z,26.24
2023-05-22T12:30:49.777Z,26.35
2023-05-22T12:31:49.853Z,26.25
2023-05-22T12:32:49.860Z,26.25
2023-05-22T12:33:49.740Z,26.15
2023-05-22T12:34:49.733Z,26.24
2023-05-22T12:35:49.727Z,26.17
2023-05-22T12:36:49.719Z,26.11
2023-05-22T12:37:49.706Z,26.17
2023-05-22T12:38:49.688Z,26.15
2023-05-22T12:39:49.677Z,26.12
2023-05-22T12:40:49.682Z,26.15
2023-05-22T12:41:49.782Z,26.06
2023-05-22T12:42:49.680Z,25.97
2023-05-22T12:43:49.632Z,25.93
2023-05-22T12:44:49.623Z,25.93
2023-05-22T12:45:49.626Z,25.84
2023-05-22T12:46:49.610Z,25.89
2023-05-22T12:47:49.631Z,25.86
2023-05-22T12:48:49.618Z,25.94
2023-05-22T12:49:49.582Z,25.89
2023-05-22T12:50:49.599Z,25.89
2023-05-22T12:51:49.560Z,25.89
2023-05-22T12:52:49.532Z,25.83
2023-05-22T12:53:49.536Z,25.82